sensor_id;sensor_type;location;lat;lon;timestamp;P1;durP1;ratioP1;P2;durP2;ratioP2
66669;SDS011;53568;52.164;4.472;2023-06-22T00:00:52;23.96;;;23.46;;
66669;SDS011;53568;52.164;4.472;2023-06-22T00:03:19;23.93;;;23.53;;
66669;SDS011;53568;52.164;4.472;2023-06-22T00:05:45;24.20;;;23.65;;
66669;SDS011;53568;52.164;4.472;2023-06-22T00:08:12;25.09;;;24.49;;
66669;SDS011;53568;52.164;4.472;2023-06-22T00:10:38;25.17;;;24.54;;
66669;SDS011;53568;52.164;4.472;2023-06-22T00:13:05;23.92;;;23.45;;
66669;SDS011;53568;52.164;4.472;2023-06-22T00:15:32;25.45;;;24.77;;
66669;SDS011;53568;52.164;4.472;2023-06-22T00:17:58;25.02;;;24.35;;
66669;SDS011;53568;52.164;4.472;2023-06-22T00:20:24;25.43;;;24.73;;
66669;SDS011;53568;52.164;4.472;2023-06-22T00:22:53;25.27;;;24.82;;
66669;SDS011;53568;52.164;4.472;2023-06-22T00:25:22;25.32;;;25.01;;
66669;SDS011;53568;52.164;4.472;2023-06-22T00:27:48;26.97;;;26.41;;
66669;SDS011;53568;52.164;4.472;2023-06-22T00:30:15;25.86;;;25.42;;
66669;SDS011;53568;52.164;4.472;2023-06-22T00:32:41;26.83;;;26.18;;
66669;SDS011;53568;52.164;4.472;2023-06-22T00:35:07;26.98;;;26.21;;
66669;SDS011;53568;52.164;4.472;2023-06-22T00:37:34;27.12;;;26.47;;
66669;SDS011;53568;52.164;4.472;2023-06-22T00:40:01;27.07;;;26.41;;
66669;SDS011;53568;52.164;4.472;2023-06-22T00:42:28;26.00;;;25.60;;
66669;SDS011;53568;52.164;4.472;2023-06-22T00:44:54;25.59;;;25.15;;
66669;SDS011;53568;52.164;4.472;2023-06-22T00:47:19;25.98;;;25.38;;
66669;SDS011;53568;52.164;4.472;2023-06-22T00:49:46;27.13;;;26.53;;
66669;SDS011;53568;52.164;4.472;2023-06-22T00:52:13;25.79;;;25.29;;
66669;SDS011;53568;52.164;4.472;2023-06-22T00:54:46;25.97;;;25.42;;
66669;SDS011;53568;52.164;4.472;2023-06-22T00:57:15;24.76;;;24.25;;
66669;SDS011;53568;52.164;4.472;2023-06-22T00:59:44;25.57;;;25.04;;
66669;SDS011;53568;52.164;4.472;2023-06-22T01:02:11;25.08;;;24.77;;
66669;SDS011;53568;52.164;4.472;2023-06-22T01:04:37;25.04;;;24.62;;
66669;SDS011;53568;52.164;4.472;2023-06-22T01:12:58;23.71;;;23.25;;
66669;SDS011;53568;52.164;4.472;2023-06-22T01:15:33;23.09;;;22.59;;
66669;SDS011;53568;52.164;4.472;2023-06-22T01:18:11;22.60;;;22.22;;
66669;SDS011;53568;52.164;4.472;2023-06-22T01:20:39;22.82;;;22.57;;
66669;SDS011;53568;52.164;4.472;2023-06-22T01:31:07;25.03;;;24.62;;
66669;SDS011;53568;52.164;4.472;2023-06-22T01:33:37;24.06;;;23.69;;
66669;SDS011;53568;52.164;4.472;2023-06-22T01:36:06;24.07;;;23.51;;
66669;SDS011;53568;52.164;4.472;2023-06-22T01:38:33;23.39;;;22.91;;
66669;SDS011;53568;52.164;4.472;2023-06-22T01:41:00;24.06;;;23.61;;
66669;SDS011;53568;52.164;4.472;2023-06-22T01:43:27;23.78;;;23.23;;
66669;SDS011;53568;52.164;4.472;2023-06-22T01:45:54;25.67;;;25.15;;
66669;SDS011;53568;52.164;4.472;2023-06-22T01:48:22;26.96;;;26.41;;
66669;SDS011;53568;52.164;4.472;2023-06-22T01:50:51;27.51;;;27.00;;
66669;SDS011;53568;52.164;4.472;2023-06-22T01:53:17;28.02;;;27.54;;
66669;SDS011;53568;52.164;4.472;2023-06-22T01:55:43;28.92;;;28.34;;
66669;SDS011;53568;52.164;4.472;2023-06-22T01:58:08;27.58;;;27.07;;
66669;SDS011;53568;52.164;4.472;2023-06-22T02:00:36;30.28;;;29.85;;
66669;SDS011;53568;52.164;4.472;2023-06-22T02:03:11;30.49;;;29.79;;
66669;SDS011;53568;52.164;4.472;2023-06-22T02:08:47;29.61;;;29.00;;
66669;SDS011;53568;52.164;4.472;2023-06-22T02:11:17;31.39;;;30.90;;
66669;SDS011;53568;52.164;4.472;2023-06-22T02:13:45;33.68;;;32.89;;
66669;SDS011;53568;52.164;4.472;2023-06-22T02:16:12;33.17;;;32.56;;
66669;SDS011;53568;52.164;4.472;2023-06-22T02:18:47;34.05;;;33.29;;
66669;SDS011;53568;52.164;4.472;2023-06-22T02:21:20;34.93;;;33.88;;
66669;SDS011;53568;52.164;4.472;2023-06-22T02:23:46;33.77;;;32.83;;
66669;SDS011;53568;52.164;4.472;2023-06-22T02:26:12;35.12;;;34.49;;
66669;SDS011;53568;52.164;4.472;2023-06-22T02:28:38;35.91;;;34.78;;
66669;SDS011;53568;52.164;4.472;2023-06-22T02:31:04;35.17;;;34.22;;
66669;SDS011;53568;52.164;4.472;2023-06-22T02:33:29;34.81;;;33.62;;
66669;SDS011;53568;52.164;4.472;2023-06-22T02:35:55;36.13;;;35.03;;
66669;SDS011;53568;52.164;4.472;2023-06-22T02:38:21;36.43;;;35.39;;
66669;SDS011;53568;52.164;4.472;2023-06-22T02:40:49;36.16;;;35.07;;
66669;SDS011;53568;52.164;4.472;2023-06-22T02:43:15;36.98;;;35.98;;
66669;SDS011;53568;52.164;4.472;2023-06-22T02:45:41;38.05;;;36.86;;
66669;SDS011;53568;52.164;4.472;2023-06-22T02:48:06;38.25;;;37.36;;
66669;SDS011;53568;52.164;4.472;2023-06-22T02:50:32;39.13;;;37.93;;
66669;SDS011;53568;52.164;4.472;2023-06-22T02:52:57;40.28;;;39.16;;
66669;SDS011;53568;52.164;4.472;2023-06-22T02:55:23;42.02;;;41.01;;
66669;SDS011;53568;52.164;4.472;2023-06-22T02:57:49;41.74;;;40.64;;
66669;SDS011;53568;52.164;4.472;2023-06-22T03:00:17;42.55;;;41.38;;
66669;SDS011;53568;52.164;4.472;2023-06-22T03:02:45;41.69;;;40.79;;
66669;SDS011;53568;52.164;4.472;2023-06-22T03:05:12;41.40;;;40.32;;
66669;SDS011;53568;52.164;4.472;2023-06-22T03:07:42;39.27;;;38.29;;
66669;SDS011;53568;52.164;4.472;2023-06-22T03:10:10;38.46;;;37.59;;
66669;SDS011;53568;52.164;4.472;2023-06-22T03:12:37;38.31;;;37.40;;
66669;SDS011;53568;52.164;4.472;2023-06-22T03:15:07;39.62;;;38.27;;
66669;SDS011;53568;52.164;4.472;2023-06-22T03:17:35;37.08;;;36.21;;
66669;SDS011;53568;52.164;4.472;2023-06-22T03:20:03;36.65;;;35.82;;
66669;SDS011;53568;52.164;4.472;2023-06-22T03:22:39;36.31;;;35.39;;
66669;SDS011;53568;52.164;4.472;2023-06-22T03:25:06;35.99;;;35.05;;
66669;SDS011;53568;52.164;4.472;2023-06-22T03:27:35;36.09;;;35.31;;
66669;SDS011;53568;52.164;4.472;2023-06-22T03:30:04;40.13;;;39.19;;
66669;SDS011;53568;52.164;4.472;2023-06-22T03:32:32;40.96;;;40.09;;
66669;SDS011;53568;52.164;4.472;2023-06-22T03:34:57;42.75;;;41.74;;
66669;SDS011;53568;52.164;4.472;2023-06-22T03:37:24;42.24;;;41.27;;
66669;SDS011;53568;52.164;4.472;2023-06-22T03:39:51;41.37;;;40.25;;
66669;SDS011;53568;52.164;4.472;2023-06-22T03:42:17;40.92;;;40.01;;
66669;SDS011;53568;52.164;4.472;2023-06-22T03:44:42;42.05;;;41.07;;
66669;SDS011;53568;52.164;4.472;2023-06-22T03:47:08;41.82;;;40.82;;
66669;SDS011;53568;52.164;4.472;2023-06-22T03:49:34;42.25;;;41.12;;
66669;SDS011;53568;52.164;4.472;2023-06-22T03:52:00;41.00;;;39.97;;
66669;SDS011;53568;52.164;4.472;2023-06-22T03:54:28;39.92;;;38.94;;
66669;SDS011;53568;52.164;4.472;2023-06-22T03:56:54;38.65;;;38.03;;
66669;SDS011;53568;52.164;4.472;2023-06-22T03:59:21;39.09;;;38.25;;
66669;SDS011;53568;52.164;4.472;2023-06-22T04:01:46;39.11;;;38.16;;
66669;SDS011;53568;52.164;4.472;2023-06-22T04:04:12;40.23;;;39.01;;
66669;SDS011;53568;52.164;4.472;2023-06-22T04:06:38;39.74;;;38.57;;
66669;SDS011;53568;52.164;4.472;2023-06-22T04:09:03;40.65;;;39.77;;
66669;SDS011;53568;52.164;4.472;2023-06-22T04:11:30;41.44;;;40.50;;
66669;SDS011;53568;52.164;4.472;2023-06-22T04:13:56;41.19;;;40.55;;
66669;SDS011;53568;52.164;4.472;2023-06-22T04:16:21;41.90;;;41.15;;
66669;SDS011;53568;52.164;4.472;2023-06-22T04:18:47;41.44;;;40.30;;
66669;SDS011;53568;52.164;4.472;2023-06-22T04:21:13;40.25;;;39.33;;
66669;SDS011;53568;52.164;4.472;2023-06-22T04:23:38;38.45;;;37.90;;
66669;SDS011;53568;52.164;4.472;2023-06-22T04:26:04;39.63;;;38.83;;
66669;SDS011;53568;52.164;4.472;2023-06-22T04:28:29;38.86;;;38.03;;
66669;SDS011;53568;52.164;4.472;2023-06-22T04:31:03;40.60;;;39.54;;
66669;SDS011;53568;52.164;4.472;2023-06-22T04:33:30;39.26;;;38.28;;
66669;SDS011;53568;52.164;4.472;2023-06-22T04:35:55;39.10;;;37.95;;
66669;SDS011;53568;52.164;4.472;2023-06-22T04:38:29;38.62;;;37.63;;
66669;SDS011;53568;52.164;4.472;2023-06-22T04:40:58;37.95;;;36.98;;
66669;SDS011;53568;52.164;4.472;2023-06-22T04:43:24;36.01;;;35.34;;
66669;SDS011;53568;52.164;4.472;2023-06-22T04:45:49;36.39;;;35.72;;
66669;SDS011;53568;52.164;4.472;2023-06-22T04:48:17;34.50;;;33.74;;
66669;SDS011;53568;52.164;4.472;2023-06-22T04:50:43;33.65;;;33.14;;
66669;SDS011;53568;52.164;4.472;2023-06-22T04:53:09;32.77;;;32.17;;
66669;SDS011;53568;52.164;4.472;2023-06-22T04:55:37;31.93;;;31.42;;
66669;SDS011;53568;52.164;4.472;2023-06-22T04:58:06;30.74;;;30.10;;
66669;SDS011;53568;52.164;4.472;2023-06-22T05:00:32;31.37;;;30.88;;
66669;SDS011;53568;52.164;4.472;2023-06-22T05:03:01;30.11;;;29.75;;
66669;SDS011;53568;52.164;4.472;2023-06-22T05:05:28;30.02;;;29.45;;
66669;SDS011;53568;52.164;4.472;2023-06-22T05:07:56;29.76;;;29.25;;
66669;SDS011;53568;52.164;4.472;2023-06-22T05:10:25;28.59;;;28.15;;
66669;SDS011;53568;52.164;4.472;2023-06-22T05:12:51;27.70;;;27.16;;
66669;SDS011;53568;52.164;4.472;2023-06-22T05:15:17;25.91;;;25.50;;
66669;SDS011;53568;52.164;4.472;2023-06-22T05:17:44;26.64;;;26.06;;
66669;SDS011;53568;52.164;4.472;2023-06-22T05:20:10;26.34;;;25.81;;
66669;SDS011;53568;52.164;4.472;2023-06-22T05:22:38;26.08;;;25.62;;
66669;SDS011;53568;52.164;4.472;2023-06-22T05:25:05;25.96;;;25.65;;
66669;SDS011;53568;52.164;4.472;2023-06-22T05:27:33;24.93;;;24.65;;
66669;SDS011;53568;52.164;4.472;2023-06-22T05:29:58;25.06;;;24.51;;
66669;SDS011;53568;52.164;4.472;2023-06-22T05:32:24;25.00;;;24.86;;
66669;SDS011;53568;52.164;4.472;2023-06-22T05:34:49;24.94;;;24.78;;
66669;SDS011;53568;52.164;4.472;2023-06-22T05:37:15;24.34;;;24.03;;
66669;SDS011;53568;52.164;4.472;2023-06-22T05:39:41;24.72;;;24.42;;
66669;SDS011;53568;52.164;4.472;2023-06-22T05:42:07;24.98;;;24.78;;
66669;SDS011;53568;52.164;4.472;2023-06-22T05:44:33;25.35;;;24.96;;
66669;SDS011;53568;52.164;4.472;2023-06-22T05:46:58;25.33;;;25.20;;
66669;SDS011;53568;52.164;4.472;2023-06-22T05:49:24;27.42;;;27.01;;
66669;SDS011;53568;52.164;4.472;2023-06-22T05:51:55;26.47;;;26.22;;
66669;SDS011;53568;52.164;4.472;2023-06-22T05:54:22;26.03;;;25.86;;
66669;SDS011;53568;52.164;4.472;2023-06-22T05:56:47;25.66;;;25.34;;
66669;SDS011;53568;52.164;4.472;2023-06-22T05:59:13;28.28;;;27.82;;
66669;SDS011;53568;52.164;4.472;2023-06-22T06:01:39;28.98;;;28.71;;
66669;SDS011;53568;52.164;4.472;2023-06-22T06:04:05;28.62;;;28.05;;
66669;SDS011;53568;52.164;4.472;2023-06-22T06:06:33;31.02;;;30.67;;
66669;SDS011;53568;52.164;4.472;2023-06-22T06:09:05;30.73;;;30.17;;
66669;SDS011;53568;52.164;4.472;2023-06-22T06:11:30;31.60;;;31.02;;
66669;SDS011;53568;52.164;4.472;2023-06-22T06:13:56;31.02;;;30.52;;
66669;SDS011;53568;52.164;4.472;2023-06-22T06:16:22;30.76;;;30.24;;
66669;SDS011;53568;52.164;4.472;2023-06-22T06:18:48;30.40;;;29.97;;
66669;SDS011;53568;52.164;4.472;2023-06-22T06:21:15;29.85;;;29.53;;
66669;SDS011;53568;52.164;4.472;2023-06-22T06:23:41;28.87;;;28.43;;
66669;SDS011;53568;52.164;4.472;2023-06-22T06:26:07;29.38;;;29.01;;
66669;SDS011;53568;52.164;4.472;2023-06-22T06:28:33;29.61;;;29.23;;
66669;SDS011;53568;52.164;4.472;2023-06-22T06:30:59;29.07;;;28.48;;
66669;SDS011;53568;52.164;4.472;2023-06-22T06:33:24;27.06;;;26.73;;
66669;SDS011;53568;52.164;4.472;2023-06-22T06:35:50;28.25;;;27.72;;
66669;SDS011;53568;52.164;4.472;2023-06-22T06:38:16;28.16;;;28.02;;
66669;SDS011;53568;52.164;4.472;2023-06-22T06:40:41;28.41;;;27.95;;
66669;SDS011;53568;52.164;4.472;2023-06-22T06:43:07;24.92;;;24.69;;
66669;SDS011;53568;52.164;4.472;2023-06-22T06:45:32;24.69;;;24.55;;
66669;SDS011;53568;52.164;4.472;2023-06-22T06:47:59;25.71;;;25.30;;
66669;SDS011;53568;52.164;4.472;2023-06-22T06:50:25;25.91;;;25.62;;
66669;SDS011;53568;52.164;4.472;2023-06-22T06:52:51;23.84;;;23.37;;
66669;SDS011;53568;52.164;4.472;2023-06-22T06:55:16;21.95;;;21.70;;
66669;SDS011;53568;52.164;4.472;2023-06-22T06:57:44;21.73;;;21.60;;
66669;SDS011;53568;52.164;4.472;2023-06-22T07:00:13;21.16;;;20.93;;
66669;SDS011;53568;52.164;4.472;2023-06-22T07:02:41;19.47;;;19.42;;
66669;SDS011;53568;52.164;4.472;2023-06-22T07:05:10;19.72;;;19.69;;
66669;SDS011;53568;52.164;4.472;2023-06-22T07:07:37;20.00;;;19.81;;
66669;SDS011;53568;52.164;4.472;2023-06-22T07:10:03;19.54;;;19.13;;
66669;SDS011;53568;52.164;4.472;2023-06-22T07:12:30;20.52;;;20.40;;
66669;SDS011;53568;52.164;4.472;2023-06-22T07:15:03;22.01;;;21.72;;
66669;SDS011;53568;52.164;4.472;2023-06-22T07:17:33;21.07;;;20.99;;
66669;SDS011;53568;52.164;4.472;2023-06-22T07:19:59;19.29;;;19.21;;
66669;SDS011;53568;52.164;4.472;2023-06-22T07:22:25;16.78;;;16.65;;
66669;SDS011;53568;52.164;4.472;2023-06-22T07:24:51;14.99;;;14.99;;
66669;SDS011;53568;52.164;4.472;2023-06-22T07:27:17;15.66;;;15.62;;
66669;SDS011;53568;52.164;4.472;2023-06-22T07:29:44;17.21;;;17.04;;
66669;SDS011;53568;52.164;4.472;2023-06-22T07:32:09;18.53;;;18.40;;
66669;SDS011;53568;52.164;4.472;2023-06-22T07:34:36;18.63;;;18.37;;
66669;SDS011;53568;52.164;4.472;2023-06-22T07:37:01;17.16;;;17.01;;
66669;SDS011;53568;52.164;4.472;2023-06-22T07:39:27;15.92;;;15.84;;
66669;SDS011;53568;52.164;4.472;2023-06-22T07:41:53;14.45;;;14.44;;
66669;SDS011;53568;52.164;4.472;2023-06-22T07:44:19;12.77;;;12.73;;
66669;SDS011;53568;52.164;4.472;2023-06-22T07:46:45;11.49;;;11.49;;
66669;SDS011;53568;52.164;4.472;2023-06-22T07:49:10;13.46;;;13.45;;
66669;SDS011;53568;52.164;4.472;2023-06-22T07:51:37;13.48;;;13.48;;
66669;SDS011;53568;52.164;4.472;2023-06-22T07:54:02;12.78;;;12.78;;
66669;SDS011;53568;52.164;4.472;2023-06-22T07:56:28;10.94;;;10.87;;
66669;SDS011;53568;52.164;4.472;2023-06-22T07:58:54;10.24;;;10.24;;
66669;SDS011;53568;52.164;4.472;2023-06-22T08:01:20;10.88;;;10.88;;
66669;SDS011;53568;52.164;4.472;2023-06-22T08:03:49;11.31;;;11.30;;
66669;SDS011;53568;52.164;4.472;2023-06-22T08:06:15;11.02;;;10.99;;
66669;SDS011;53568;52.164;4.472;2023-06-22T08:08:41;10.58;;;10.56;;
66669;SDS011;53568;52.164;4.472;2023-06-22T08:11:07;11.43;;;11.42;;
66669;SDS011;53568;52.164;4.472;2023-06-22T08:13:33;11.83;;;11.81;;
66669;SDS011;53568;52.164;4.472;2023-06-22T08:15:59;11.71;;;11.71;;
66669;SDS011;53568;52.164;4.472;2023-06-22T08:18:25;11.48;;;11.48;;
66669;SDS011;53568;52.164;4.472;2023-06-22T08:20:50;10.35;;;10.35;;
66669;SDS011;53568;52.164;4.472;2023-06-22T08:23:16;9.91;;;9.91;;
66669;SDS011;53568;52.164;4.472;2023-06-22T08:25:42;9.72;;;9.71;;
66669;SDS011;53568;52.164;4.472;2023-06-22T08:28:08;10.73;;;10.73;;
66669;SDS011;53568;52.164;4.472;2023-06-22T08:30:33;10.29;;;10.29;;
66669;SDS011;53568;52.164;4.472;2023-06-22T08:32:59;10.49;;;10.44;;
66669;SDS011;53568;52.164;4.472;2023-06-22T08:35:25;10.56;;;10.47;;
66669;SDS011;53568;52.164;4.472;2023-06-22T08:37:50;10.79;;;10.77;;
66669;SDS011;53568;52.164;4.472;2023-06-22T08:40:22;10.90;;;10.90;;
66669;SDS011;53568;52.164;4.472;2023-06-22T08:42:49;11.08;;;11.08;;
66669;SDS011;53568;52.164;4.472;2023-06-22T08:45:15;10.97;;;10.97;;
66669;SDS011;53568;52.164;4.472;2023-06-22T08:47:41;10.97;;;10.97;;
66669;SDS011;53568;52.164;4.472;2023-06-22T08:50:10;11.64;;;11.64;;
66669;SDS011;53568;52.164;4.472;2023-06-22T08:52:38;11.67;;;11.67;;
66669;SDS011;53568;52.164;4.472;2023-06-22T08:55:08;11.25;;;11.25;;
66669;SDS011;53568;52.164;4.472;2023-06-22T08:57:35;10.23;;;10.23;;
66669;SDS011;53568;52.164;4.472;2023-06-22T09:00:05;8.98;;;8.91;;
66669;SDS011;53568;52.164;4.472;2023-06-22T09:02:36;10.06;;;10.06;;
66669;SDS011;53568;52.164;4.472;2023-06-22T09:05:03;9.95;;;9.95;;
66669;SDS011;53568;52.164;4.472;2023-06-22T09:07:29;10.03;;;10.03;;
66669;SDS011;53568;52.164;4.472;2023-06-22T09:09:55;9.36;;;9.36;;
66669;SDS011;53568;52.164;4.472;2023-06-22T09:12:21;9.75;;;9.75;;
66669;SDS011;53568;52.164;4.472;2023-06-22T09:14:51;10.44;;;10.43;;
66669;SDS011;53568;52.164;4.472;2023-06-22T09:17:16;10.88;;;10.88;;
66669;SDS011;53568;52.164;4.472;2023-06-22T09:19:42;10.66;;;10.66;;
66669;SDS011;53568;52.164;4.472;2023-06-22T09:22:08;10.35;;;10.35;;
66669;SDS011;53568;52.164;4.472;2023-06-22T09:24:33;12.65;;;12.65;;
66669;SDS011;53568;52.164;4.472;2023-06-22T09:26:59;11.76;;;11.76;;
66669;SDS011;53568;52.164;4.472;2023-06-22T09:29:25;11.40;;;11.40;;
66669;SDS011;53568;52.164;4.472;2023-06-22T09:31:50;11.80;;;11.80;;
66669;SDS011;53568;52.164;4.472;2023-06-22T09:34:18;12.54;;;12.54;;
66669;SDS011;53568;52.164;4.472;2023-06-22T09:36:45;16.41;;;16.41;;
66669;SDS011;53568;52.164;4.472;2023-06-22T09:39:11;15.86;;;15.86;;
66669;SDS011;53568;52.164;4.472;2023-06-22T09:41:37;17.26;;;17.26;;
66669;SDS011;53568;52.164;4.472;2023-06-22T09:44:03;16.93;;;16.93;;
66669;SDS011;53568;52.164;4.472;2023-06-22T09:46:28;16.56;;;16.56;;
66669;SDS011;53568;52.164;4.472;2023-06-22T09:48:55;15.86;;;15.86;;
66669;SDS011;53568;52.164;4.472;2023-06-22T09:51:21;16.22;;;16.22;;
66669;SDS011;53568;52.164;4.472;2023-06-22T09:53:49;20.30;;;20.30;;
66669;SDS011;53568;52.164;4.472;2023-06-22T09:56:15;20.70;;;20.70;;
66669;SDS011;53568;52.164;4.472;2023-06-22T09:58:44;20.47;;;20.47;;
66669;SDS011;53568;52.164;4.472;2023-06-22T10:01:11;19.94;;;19.94;;
66669;SDS011;53568;52.164;4.472;2023-06-22T10:03:39;15.20;;;15.20;;
66669;SDS011;53568;52.164;4.472;2023-06-22T10:06:06;15.90;;;15.90;;
66669;SDS011;53568;52.164;4.472;2023-06-22T10:08:33;16.96;;;16.96;;
66669;SDS011;53568;52.164;4.472;2023-06-22T10:10:59;16.05;;;16.05;;
66669;SDS011;53568;52.164;4.472;2023-06-22T10:13:25;15.36;;;15.36;;
66669;SDS011;53568;52.164;4.472;2023-06-22T10:15:50;15.39;;;15.39;;
66669;SDS011;53568;52.164;4.472;2023-06-22T10:18:20;15.80;;;15.80;;
66669;SDS011;53568;52.164;4.472;2023-06-22T10:20:50;13.97;;;13.97;;
66669;SDS011;53568;52.164;4.472;2023-06-22T10:23:17;14.08;;;14.08;;
66669;SDS011;53568;52.164;4.472;2023-06-22T10:25:43;13.82;;;13.82;;
66669;SDS011;53568;52.164;4.472;2023-06-22T10:28:08;12.06;;;12.06;;
66669;SDS011;53568;52.164;4.472;2023-06-22T10:30:34;11.68;;;11.68;;
66669;SDS011;53568;52.164;4.472;2023-06-22T10:32:59;12.18;;;12.18;;
66669;SDS011;53568;52.164;4.472;2023-06-22T10:35:25;13.17;;;13.17;;
66669;SDS011;53568;52.164;4.472;2023-06-22T10:37:50;14.69;;;14.69;;
66669;SDS011;53568;52.164;4.472;2023-06-22T10:40:16;14.83;;;14.83;;
66669;SDS011;53568;52.164;4.472;2023-06-22T10:42:43;14.36;;;14.36;;
66669;SDS011;53568;52.164;4.472;2023-06-22T10:45:10;13.33;;;13.33;;
66669;SDS011;53568;52.164;4.472;2023-06-22T10:47:36;14.09;;;14.09;;
66669;SDS011;53568;52.164;4.472;2023-06-22T10:50:02;15.98;;;15.98;;
66669;SDS011;53568;52.164;4.472;2023-06-22T10:52:29;15.06;;;15.06;;
66669;SDS011;53568;52.164;4.472;2023-06-22T10:54:54;17.62;;;17.62;;
66669;SDS011;53568;52.164;4.472;2023-06-22T10:57:21;18.29;;;18.29;;
66669;SDS011;53568;52.164;4.472;2023-06-22T10:59:47;17.73;;;17.73;;
66669;SDS011;53568;52.164;4.472;2023-06-22T11:02:13;17.65;;;17.65;;
66669;SDS011;53568;52.164;4.472;2023-06-22T11:04:38;19.34;;;19.34;;
66669;SDS011;53568;52.164;4.472;2023-06-22T11:07:04;20.79;;;20.79;;
66669;SDS011;53568;52.164;4.472;2023-06-22T11:09:31;19.86;;;19.86;;
66669;SDS011;53568;52.164;4.472;2023-06-22T11:11:57;20.27;;;20.27;;
66669;SDS011;53568;52.164;4.472;2023-06-22T11:14:24;17.94;;;17.94;;
66669;SDS011;53568;52.164;4.472;2023-06-22T11:16:50;16.82;;;16.82;;
66669;SDS011;53568;52.164;4.472;2023-06-22T11:19:15;18.62;;;18.62;;
66669;SDS011;53568;52.164;4.472;2023-06-22T11:21:41;21.37;;;21.37;;
66669;SDS011;53568;52.164;4.472;2023-06-22T11:24:07;23.37;;;23.37;;
66669;SDS011;53568;52.164;4.472;2023-06-22T11:26:33;22.12;;;22.12;;
66669;SDS011;53568;52.164;4.472;2023-06-22T11:28:59;19.34;;;19.34;;
66669;SDS011;53568;52.164;4.472;2023-06-22T11:31:24;16.40;;;16.40;;
66669;SDS011;53568;52.164;4.472;2023-06-22T11:33:50;16.89;;;16.89;;
66669;SDS011;53568;52.164;4.472;2023-06-22T11:36:16;17.24;;;17.24;;
66669;SDS011;53568;52.164;4.472;2023-06-22T11:38:42;17.07;;;17.07;;
66669;SDS011;53568;52.164;4.472;2023-06-22T11:41:08;18.37;;;18.37;;
66669;SDS011;53568;52.164;4.472;2023-06-22T11:43:35;19.16;;;19.15;;
66669;SDS011;53568;52.164;4.472;2023-06-22T11:46:05;18.67;;;18.67;;
66669;SDS011;53568;52.164;4.472;2023-06-22T11:48:31;19.25;;;19.24;;
66669;SDS011;53568;52.164;4.472;2023-06-22T11:50:57;20.58;;;20.55;;
66669;SDS011;53568;52.164;4.472;2023-06-22T11:53:24;20.29;;;20.29;;
66669;SDS011;53568;52.164;4.472;2023-06-22T11:55:51;17.40;;;17.40;;
66669;SDS011;53568;52.164;4.472;2023-06-22T11:58:19;16.78;;;16.78;;
66669;SDS011;53568;52.164;4.472;2023-06-22T12:00:44;16.76;;;16.76;;
66669;SDS011;53568;52.164;4.472;2023-06-22T12:03:10;18.02;;;18.02;;
66669;SDS011;53568;52.164;4.472;2023-06-22T12:05:37;17.48;;;17.48;;
66669;SDS011;53568;52.164;4.472;2023-06-22T12:08:03;18.58;;;18.58;;
66669;SDS011;53568;52.164;4.472;2023-06-22T12:10:28;20.04;;;20.04;;
66669;SDS011;53568;52.164;4.472;2023-06-22T12:12:54;23.15;;;23.15;;
66669;SDS011;53568;52.164;4.472;2023-06-22T12:15:20;23.80;;;23.80;;
66669;SDS011;53568;52.164;4.472;2023-06-22T12:17:45;24.07;;;24.07;;
66669;SDS011;53568;52.164;4.472;2023-06-22T12:20:13;23.77;;;23.77;;
66669;SDS011;53568;52.164;4.472;2023-06-22T12:22:39;23.08;;;23.08;;
66669;SDS011;53568;52.164;4.472;2023-06-22T12:25:06;23.82;;;23.81;;
66669;SDS011;53568;52.164;4.472;2023-06-22T12:27:32;23.37;;;23.37;;
66669;SDS011;53568;52.164;4.472;2023-06-22T12:29:58;24.10;;;24.10;;
66669;SDS011;53568;52.164;4.472;2023-06-22T12:32:24;25.79;;;25.79;;
66669;SDS011;53568;52.164;4.472;2023-06-22T12:34:50;24.60;;;24.60;;
66669;SDS011;53568;52.164;4.472;2023-06-22T12:37:17;24.04;;;24.04;;
66669;SDS011;53568;52.164;4.472;2023-06-22T12:39:44;24.46;;;24.46;;
66669;SDS011;53568;52.164;4.472;2023-06-22T12:42:10;25.42;;;25.42;;
66669;SDS011;53568;52.164;4.472;2023-06-22T12:44:39;25.05;;;25.05;;
66669;SDS011;53568;52.164;4.472;2023-06-22T12:47:06;26.52;;;26.52;;
66669;SDS011;53568;52.164;4.472;2023-06-22T12:49:32;25.53;;;25.53;;
66669;SDS011;53568;52.164;4.472;2023-06-22T12:51:57;26.35;;;26.35;;
66669;SDS011;53568;52.164;4.472;2023-06-22T12:54:24;25.46;;;25.46;;
66669;SDS011;53568;52.164;4.472;2023-06-22T12:56:50;24.99;;;24.99;;
66669;SDS011;53568;52.164;4.472;2023-06-22T12:59:16;24.14;;;24.14;;
66669;SDS011;53568;52.164;4.472;2023-06-22T13:01:42;22.93;;;22.93;;
66669;SDS011;53568;52.164;4.472;2023-06-22T13:04:11;23.21;;;23.21;;
66669;SDS011;53568;52.164;4.472;2023-06-22T13:06:42;21.87;;;21.87;;
66669;SDS011;53568;52.164;4.472;2023-06-22T13:09:12;23.77;;;23.75;;
66669;SDS011;53568;52.164;4.472;2023-06-22T13:11:38;24.66;;;24.65;;
66669;SDS011;53568;52.164;4.472;2023-06-22T13:14:04;23.96;;;23.96;;
66669;SDS011;53568;52.164;4.472;2023-06-22T13:16:30;23.60;;;23.60;;
66669;SDS011;53568;52.164;4.472;2023-06-22T13:18:56;22.98;;;22.98;;
66669;SDS011;53568;52.164;4.472;2023-06-22T13:21:21;23.97;;;23.97;;
66669;SDS011;53568;52.164;4.472;2023-06-22T13:23:47;24.41;;;24.41;;
66669;SDS011;53568;52.164;4.472;2023-06-22T13:26:12;24.24;;;24.24;;
66669;SDS011;53568;52.164;4.472;2023-06-22T13:28:38;23.43;;;23.43;;
66669;SDS011;53568;52.164;4.472;2023-06-22T13:31:04;23.99;;;23.99;;
66669;SDS011;53568;52.164;4.472;2023-06-22T13:33:29;23.64;;;23.64;;
66669;SDS011;53568;52.164;4.472;2023-06-22T13:35:55;22.96;;;22.96;;
66669;SDS011;53568;52.164;4.472;2023-06-22T13:38:20;23.56;;;23.56;;
66669;SDS011;53568;52.164;4.472;2023-06-22T13:40:47;23.63;;;23.63;;
66669;SDS011;53568;52.164;4.472;2023-06-22T13:43:13;22.71;;;22.71;;
66669;SDS011;53568;52.164;4.472;2023-06-22T13:45:39;22.71;;;22.71;;
66669;SDS011;53568;52.164;4.472;2023-06-22T13:48:05;22.67;;;22.67;;
66669;SDS011;53568;52.164;4.472;2023-06-22T13:50:31;23.41;;;23.41;;
66669;SDS011;53568;52.164;4.472;2023-06-22T13:52:56;23.68;;;23.68;;
66669;SDS011;53568;52.164;4.472;2023-06-22T13:55:22;23.18;;;23.18;;
66669;SDS011;53568;52.164;4.472;2023-06-22T13:57:48;22.37;;;22.37;;
66669;SDS011;53568;52.164;4.472;2023-06-22T14:00:14;22.72;;;22.72;;
66669;SDS011;53568;52.164;4.472;2023-06-22T14:02:40;21.91;;;21.91;;
66669;SDS011;53568;52.164;4.472;2023-06-22T14:05:06;21.40;;;21.40;;
66669;SDS011;53568;52.164;4.472;2023-06-22T14:07:32;21.15;;;21.15;;
66669;SDS011;53568;52.164;4.472;2023-06-22T14:09:58;20.71;;;20.71;;
66669;SDS011;53568;52.164;4.472;2023-06-22T14:12:24;20.60;;;20.60;;
66669;SDS011;53568;52.164;4.472;2023-06-22T14:14:50;20.12;;;20.12;;
66669;SDS011;53568;52.164;4.472;2023-06-22T14:17:15;19.69;;;19.69;;
66669;SDS011;53568;52.164;4.472;2023-06-22T14:19:41;20.01;;;20.01;;
66669;SDS011;53568;52.164;4.472;2023-06-22T14:22:07;19.43;;;19.43;;
66669;SDS011;53568;52.164;4.472;2023-06-22T14:24:32;19.68;;;19.68;;
66669;SDS011;53568;52.164;4.472;2023-06-22T14:26:59;19.32;;;19.32;;
66669;SDS011;53568;52.164;4.472;2023-06-22T14:29:27;19.40;;;19.40;;
66669;SDS011;53568;52.164;4.472;2023-06-22T14:31:53;18.76;;;18.76;;
66669;SDS011;53568;52.164;4.472;2023-06-22T14:34:19;20.48;;;20.48;;